createdAt,value
2018-08-17T00:00:56.119Z,99.10
2018-08-17T00:03:24.326Z,99.20
2018-08-17T00:05:52.458Z,99.30
2018-08-17T00:08:20.620Z,99.40
2018-08-17T00:10:48.755Z,99.50
2018-08-17T00:13:16.911Z,99.50
2018-08-17T00:15:44.998Z,99.60
2018-08-17T00:18:13.159Z,99.50
2018-08-17T00:20:41.246Z,99.50
2018-08-17T00:23:09.338Z,99.50
2018-08-17T00:25:37.430Z,99.50
2018-08-17T00:28:05.594Z,99.50
2018-08-17T00:30:33.697Z,99.60
2018-08-17T00:33:01.916Z,99.80
2018-08-17T00:35:30.002Z,99.80
2018-08-17T00:37:58.164Z,99.80
2018-08-17T00:40:26.256Z,99.90
2018-08-17T00:42:54.402Z,99.90
2018-08-17T00:45:22.509Z,99.90
2018-08-17T00:47:50.681Z,99.80
2018-08-17T00:50:18.775Z,99.70
2018-08-17T00:52:46.894Z,99.90
2018-08-17T00:55:14.978Z,99.90
2018-08-17T00:57:43.183Z,99.90
2018-08-17T01:00:11.311Z,99.90
2018-08-17T01:02:39.516Z,99.90
2018-08-17T01:05:07.637Z,99.90
2018-08-17T01:07:35.762Z,99.90
2018-08-17T01:10:04.105Z,99.90
2018-08-17T01:12:32.287Z,99.90
2018-08-17T01:15:00.388Z,99.90
2018-08-17T01:17:28.568Z,99.90
2018-08-17T01:19:56.677Z,99.90
2018-08-17T01:22:24.805Z,99.90
2018-08-17T01:24:52.913Z,99.90
2018-08-17T01:27:21.034Z,99.90
2018-08-17T01:29:49.154Z,99.90
2018-08-17T01:32:17.277Z,99.90
2018-08-17T01:34:45.452Z,99.90
2018-08-17T01:37:13.554Z,99.90
2018-08-17T01:39:41.668Z,99.90
2018-08-17T01:42:09.785Z,99.90
2018-08-17T01:44:38.033Z,99.90
2018-08-17T01:47:06.175Z,99.90
2018-08-17T01:49:34.309Z,99.90
2018-08-17T01:52:02.404Z,99.90
2018-08-17T01:54:30.500Z,99.90
2018-08-17T01:56:58.583Z,99.90
2018-08-17T01:59:26.705Z,99.90
2018-08-17T02:01:54.812Z,99.90
2018-08-17T02:04:22.935Z,99.90
2018-08-17T02:06:51.057Z,99.90
2018-08-17T02:09:20.244Z,99.90
2018-08-17T02:11:48.352Z,99.90
2018-08-17T02:14:16.576Z,99.90
2018-08-17T02:16:44.704Z,99.90
2018-08-17T02:19:12.964Z,99.90
2018-08-17T02:21:41.082Z,99.90
2018-08-17T02:24:09.294Z,99.90
2018-08-17T02:26:37.445Z,99.90
2018-08-17T02:29:05.563Z,99.90
2018-08-17T02:31:33.682Z,99.90
2018-08-17T02:34:01.893Z,99.90
2018-08-17T02:36:30.013Z,99.90
2018-08-17T02:38:59.635Z,99.90
2018-08-17T02:41:27.719Z,99.90
2018-08-17T02:43:55.919Z,99.90
2018-08-17T02:46:24.096Z,99.90
2018-08-17T02:48:52.272Z,99.90
2018-08-17T02:51:20.389Z,99.90
2018-08-17T02:53:48.523Z,99.90
2018-08-17T02:56:16.644Z,99.90
2018-08-17T02:58:44.864Z,99.90
2018-08-17T03:01:12.991Z,99.90
2018-08-17T03:03:41.100Z,99.90
2018-08-17T03:06:09.207Z,99.90
2018-08-17T03:08:37.448Z,99.90
2018-08-17T03:11:05.822Z,99.90
2018-08-17T03:13:34.003Z,99.90
2018-08-17T03:16:02.119Z,99.90
2018-08-17T03:18:30.340Z,99.90
2018-08-17T03:20:58.483Z,99.90
2018-08-17T03:23:26.613Z,99.90
2018-08-17T03:25:54.716Z,99.90
2018-08-17T03:28:22.899Z,99.90
2018-08-17T03:30:51.027Z,99.90
2018-08-17T03:33:19.219Z,99.90
2018-08-17T03:35:47.335Z,99.90
2018-08-17T03:38:15.495Z,99.90
2018-08-17T03:40:43.773Z,99.90
2018-08-17T03:43:11.888Z,99.90
2018-08-17T03:45:40.001Z,99.90
2018-08-17T03:48:08.492Z,99.90
2018-08-17T03:50:36.655Z,99.90
2018-08-17T03:53:05.054Z,99.90
2018-08-17T03:55:33.187Z,99.90
2018-08-17T03:58:01.291Z,99.90
2018-08-17T04:00:29.457Z,99.90
2018-08-17T04:02:57.571Z,99.90
2018-08-17T04:05:27.499Z,99.90
2018-08-17T04:07:55.616Z,99.90
2018-08-17T04:10:23.747Z,99.90
2018-08-17T04:12:51.969Z,99.90
2018-08-17T04:15:20.095Z,99.90
2018-08-17T04:17:48.211Z,99.90
2018-08-17T04:20:16.313Z,99.90
2018-08-17T04:22:44.708Z,99.90
2018-08-17T04:25:12.911Z,99.90
2018-08-17T04:27:41.075Z,99.90
2018-08-17T04:30:09.232Z,99.90
2018-08-17T04:32:37.336Z,99.90
2018-08-17T04:35:05.615Z,99.90
2018-08-17T04:37:33.748Z,99.90
2018-08-17T04:40:08.628Z,99.90
2018-08-17T04:42:36.888Z,99.90
2018-08-17T04:45:05.952Z,99.90
2018-08-17T04:47:34.072Z,99.90
2018-08-17T04:50:03.328Z,99.90
2018-08-17T04:52:31.452Z,99.90
2018-08-17T04:54:59.656Z,99.90
2018-08-17T04:57:27.768Z,99.90
2018-08-17T04:59:55.892Z,99.90
2018-08-17T05:02:24.020Z,99.90
2018-08-17T05:04:52.229Z,99.90
2018-08-17T05:07:20.331Z,99.90
2018-08-17T05:09:48.436Z,99.90
2018-08-17T05:12:16.634Z,99.90
2018-08-17T05:14:44.970Z,99.90
2018-08-17T05:17:13.075Z,99.90
2018-08-17T05:19:41.267Z,99.90
2018-08-17T05:22:09.389Z,99.90
2018-08-17T05:24:37.515Z,99.90
2018-08-17T05:27:05.762Z,99.90
2018-08-17T05:29:33.897Z,99.90
2018-08-17T05:32:02.033Z,99.90
2018-08-17T05:34:30.247Z,99.90
2018-08-17T05:36:58.372Z,99.90
2018-08-17T05:39:26.619Z,99.90
2018-08-17T05:41:54.728Z,99.90
2018-08-17T05:44:22.959Z,99.90
2018-08-17T05:46:51.063Z,99.90
2018-08-17T05:49:19.188Z,99.90
2018-08-17T05:51:47.292Z,99.90
2018-08-17T05:54:15.441Z,99.90
2018-08-17T05:56:43.602Z,99.90
2018-08-17T05:59:11.689Z,99.90
2018-08-17T06:01:39.807Z,99.90
2018-08-17T06:04:08.975Z,99.90
2018-08-17T06:06:37.144Z,99.90
2018-08-17T06:09:06.611Z,99.90
2018-08-17T06:11:34.845Z,99.90
2018-08-17T06:14:03.019Z,99.90
2018-08-17T06:16:31.184Z,99.90
2018-08-17T06:18:59.319Z,99.90
2018-08-17T06:21:27.533Z,99.90
2018-08-17T06:23:55.932Z,99.90
2018-08-17T06:26:24.048Z,99.90
2018-08-17T06:28:52.205Z,99.90
2018-08-17T06:31:20.384Z,99.90
2018-08-17T06:33:48.510Z,99.90
2018-08-17T06:36:16.678Z,99.90
2018-08-17T06:38:45.811Z,99.90
2018-08-17T06:41:14.259Z,99.90
2018-08-17T06:43:42.468Z,99.90
2018-08-17T06:46:10.576Z,99.90
2018-08-17T06:48:38.746Z,99.90
2018-08-17T06:51:07.075Z,99.90
2018-08-17T06:53:35.254Z,99.90
2018-08-17T06:56:03.428Z,99.90
2018-08-17T06:58:31.532Z,99.90
2018-08-17T07:00:59.735Z,99.90
2018-08-17T07:03:27.929Z,99.90
2018-08-17T07:05:56.097Z,99.90
2018-08-17T07:08:30.838Z,99.90
2018-08-17T07:10:58.932Z,99.90
2018-08-17T07:13:27.099Z,99.90
2018-08-17T07:15:55.240Z,99.90
2018-08-17T07:18:23.331Z,99.90
2018-08-17T07:20:51.448Z,99.90
2018-08-17T07:23:19.558Z,99.90
2018-08-17T07:25:47.732Z,99.90
2018-08-17T07:28:15.854Z,99.90
2018-08-17T07:30:44.153Z,99.90
2018-08-17T07:33:12.263Z,99.90
2018-08-17T07:35:40.362Z,99.90
2018-08-17T07:38:08.467Z,99.90
2018-08-17T07:40:36.648Z,99.90
2018-08-17T07:43:04.778Z,99.90
2018-08-17T07:45:32.974Z,99.90
2018-08-17T07:48:01.190Z,99.90
2018-08-17T07:50:29.231Z,99.90
2018-08-17T07:52:57.427Z,99.90
2018-08-17T07:55:25.667Z,99.90
2018-08-17T07:57:53.788Z,99.90
2018-08-17T08:00:21.873Z,99.90
2018-08-17T08:02:49.995Z,99.90
2018-08-17T08:05:18.208Z,99.90
2018-08-17T08:07:46.384Z,99.90
2018-08-17T08:10:14.554Z,99.30
2018-08-17T08:12:42.675Z,99.20
2018-08-17T08:15:10.905Z,98.50
2018-08-17T08:17:39.018Z,98.60
2018-08-17T08:20:18.700Z,98.30
2018-08-17T08:22:46.897Z,98.40
2018-08-17T08:25:15.083Z,98.30
2018-08-17T08:27:43.195Z,98.00
2018-08-17T08:30:11.384Z,98.00
2018-08-17T08:32:39.524Z,97.80
2018-08-17T08:35:07.974Z,98.30
2018-08-17T08:37:36.149Z,97.80
2018-08-17T08:40:04.870Z,97.60
2018-08-17T08:42:33.064Z,97.10
2018-08-17T08:45:01.298Z,96.70
2018-08-17T08:47:29.420Z,96.90
2018-08-17T08:49:57.642Z,97.00
2018-08-17T08:52:25.792Z,96.70
2018-08-17T08:54:53.970Z,96.80
2018-08-17T08:57:22.148Z,96.50
2018-08-17T08:59:50.359Z,96.20
2018-08-17T09:02:18.569Z,95.90
2018-08-17T09:04:46.793Z,95.20
2018-08-17T09:07:14.921Z,95.30
2018-08-17T09:09:43.031Z,94.80
2018-08-17T09:12:11.143Z,94.70
2018-08-17T09:14:39.354Z,94.10
2018-08-17T09:17:07.460Z,94.10
2018-08-17T09:19:35.668Z,94.10
2018-08-17T09:22:03.828Z,93.90
2018-08-17T09:24:32.054Z,93.80
2018-08-17T09:27:00.177Z,93.80
2018-08-17T09:29:28.403Z,93.70
2018-08-17T09:31:56.512Z,93.40
2018-08-17T09:34:24.641Z,93.30
2018-08-17T09:36:52.753Z,93.10
2018-08-17T09:39:20.887Z,93.40
2018-08-17T09:41:49.138Z,93.60
2018-08-17T09:44:17.278Z,92.80
2018-08-17T09:46:45.419Z,92.70
2018-08-17T09:49:13.624Z,92.60
2018-08-17T09:51:41.744Z,92.60
2018-08-17T09:54:09.967Z,91.80
2018-08-17T09:56:38.357Z,91.70
2018-08-17T09:59:07.059Z,91.60
2018-08-17T10:01:40.660Z,91.60
2018-08-17T10:04:14.146Z,91.60
2018-08-17T10:06:47.678Z,92.10
2018-08-17T10:09:21.168Z,92.00
2018-08-17T10:11:50.754Z,92.10
2018-08-17T10:14:19.463Z,92.20
2018-08-17T10:16:47.833Z,92.50
2018-08-17T10:19:15.986Z,92.10
2018-08-17T10:21:49.822Z,91.70
2018-08-17T10:24:18.204Z,91.80
2018-08-17T10:26:47.508Z,91.60
2018-08-17T10:29:15.652Z,91.90
2018-08-17T10:31:44.057Z,91.90
2018-08-17T10:34:12.532Z,92.10
2018-08-17T10:36:40.737Z,91.90
2018-08-17T10:39:09.812Z,91.50
2018-08-17T10:41:38.401Z,91.40
2018-08-17T10:44:06.516Z,91.30
2018-08-17T10:46:35.164Z,91.10
2018-08-17T10:49:03.291Z,90.90
2018-08-17T10:51:31.477Z,90.40
2018-08-17T10:53:59.652Z,90.30
2018-08-17T10:56:27.803Z,89.50
2018-08-17T10:58:56.020Z,90.00
2018-08-17T11:01:24.205Z,88.80
2018-08-17T11:03:52.368Z,89.00
2018-08-17T11:06:20.545Z,88.50
2018-08-17T11:08:48.691Z,87.40
2018-08-17T11:11:16.815Z,86.20
2018-08-17T11:13:44.965Z,85.00
2018-08-17T11:16:13.164Z,85.40
2018-08-17T11:18:41.296Z,85.80
2018-08-17T11:21:09.425Z,83.60
2018-08-17T11:23:37.683Z,84.30
2018-08-17T11:26:05.880Z,84.60
2018-08-17T11:28:33.990Z,85.20
2018-08-17T11:31:02.617Z,84.20
2018-08-17T11:33:30.805Z,83.40
2018-08-17T11:35:58.948Z,84.80
2018-08-17T11:38:27.338Z,82.40
2018-08-17T11:40:55.475Z,82.00
2018-08-17T11:43:23.692Z,81.80
2018-08-17T11:45:51.873Z,82.60
2018-08-17T11:48:26.672Z,82.50
2018-08-17T11:50:55.479Z,82.70
2018-08-17T11:53:23.778Z,80.60
2018-08-17T11:55:51.900Z,80.90
2018-08-17T11:58:20.061Z,82.00
2018-08-17T12:00:48.275Z,81.00
2018-08-17T12:03:18.126Z,80.40
2018-08-17T12:05:46.346Z,79.60
2018-08-17T12:08:14.610Z,80.60
2018-08-17T12:10:46.722Z,80.00
2018-08-17T12:13:18.458Z,80.80
2018-08-17T12:15:53.442Z,79.80
2018-08-17T12:18:21.553Z,79.40
2018-08-17T12:20:49.671Z,79.80
2018-08-17T12:23:18.010Z,80.50
2018-08-17T12:25:54.584Z,79.30
2018-08-17T12:28:23.595Z,78.70
2018-08-17T12:30:51.764Z,79.40
2018-08-17T12:33:19.963Z,79.50
2018-08-17T12:35:48.166Z,78.80
2018-08-17T12:38:17.584Z,79.30
2018-08-17T12:40:52.178Z,78.10
2018-08-17T12:43:24.054Z,78.30
2018-08-17T12:45:52.255Z,78.90
2018-08-17T12:48:20.391Z,78.50
2018-08-17T12:50:49.227Z,77.70
2018-08-17T12:53:17.377Z,78.00
2018-08-17T12:55:45.611Z,78.00
2018-08-17T12:58:14.333Z,77.90
2018-08-17T13:00:42.500Z,77.80
2018-08-17T13:03:10.635Z,77.80
2018-08-17T13:05:39.056Z,77.90
2018-08-17T13:08:08.052Z,77.70
2018-08-17T13:10:36.264Z,76.90
2018-08-17T13:13:11.604Z,76.30
2018-08-17T13:15:45.215Z,76.70
2018-08-17T13:18:27.875Z,75.60
2018-08-17T13:21:02.739Z,76.00
2018-08-17T13:23:30.999Z,75.80
2018-08-17T13:25:59.153Z,75.60
2018-08-17T13:28:27.328Z,75.70
2018-08-17T13:30:55.499Z,75.90
2018-08-17T13:33:23.632Z,75.70
2018-08-17T13:35:51.745Z,76.20
2018-08-17T13:38:19.885Z,76.00
2018-08-17T13:40:48.099Z,75.70
2018-08-17T13:43:16.231Z,75.90
2018-08-17T13:45:44.452Z,75.50
2018-08-17T13:48:12.592Z,76.30
2018-08-17T13:53:15.238Z,75.50
2018-08-17T13:55:43.413Z,74.60
2018-08-17T13:58:11.541Z,75.60
2018-08-17T14:00:39.752Z,74.10
2018-08-17T14:03:07.865Z,73.60
2018-08-17T14:05:36.169Z,73.70
2018-08-17T14:08:04.287Z,73.50
2018-08-17T14:10:32.416Z,75.00
2018-08-17T14:13:00.540Z,74.70
2018-08-17T14:15:28.680Z,73.60
2018-08-17T14:17:56.797Z,72.70
2018-08-17T14:20:24.903Z,73.70
2018-08-17T14:22:53.028Z,73.30
2018-08-17T14:25:21.161Z,74.60
2018-08-17T14:27:49.288Z,73.70
2018-08-17T14:30:20.696Z,73.40
2018-08-17T14:32:48.954Z,73.90
2018-08-17T14:35:17.239Z,74.20
2018-08-17T14:37:45.263Z,74.10
2018-08-17T14:40:13.475Z,74.90
2018-08-17T14:42:41.574Z,73.80
2018-08-17T14:45:10.535Z,74.00
2018-08-17T14:47:38.846Z,74.50
2018-08-17T14:50:08.865Z,74.30
2018-08-17T14:52:37.019Z,74.80
2018-08-17T14:55:05.520Z,75.60
2018-08-17T14:57:33.836Z,76.50
2018-08-17T15:00:01.976Z,77.60
2018-08-17T15:02:30.144Z,79.00
2018-08-17T15:04:58.360Z,80.00
2018-08-17T15:07:26.463Z,80.50
2018-08-17T15:09:54.696Z,81.20
2018-08-17T15:12:22.832Z,80.80
2018-08-17T15:14:50.962Z,80.90
2018-08-17T15:17:19.092Z,80.60
2018-08-17T15:19:47.289Z,81.20
2018-08-17T15:22:15.402Z,81.00
2018-08-17T15:24:43.556Z,82.00
2018-08-17T15:27:11.667Z,82.60
2018-08-17T15:29:39.979Z,82.60
2018-08-17T15:32:08.618Z,83.00
2018-08-17T15:34:36.835Z,83.10
2018-08-17T15:37:05.091Z,83.50
2018-08-17T15:39:33.289Z,83.80
2018-08-17T15:42:01.404Z,84.30
2018-08-17T15:44:29.569Z,84.50
2018-08-17T15:46:58.368Z,84.90
2018-08-17T15:49:32.012Z,84.40
2018-08-17T15:52:00.676Z,84.30
2018-08-17T15:54:29.034Z,83.60
2018-08-17T15:56:57.245Z,84.30
2018-08-17T15:59:25.371Z,83.80
2018-08-17T16:01:53.471Z,84.50
2018-08-17T16:04:21.678Z,85.00
2018-08-17T16:06:50.464Z,85.40
2018-08-17T16:09:18.597Z,85.70
2018-08-17T16:11:46.680Z,86.20
2018-08-17T16:14:14.812Z,86.40
2018-08-17T16:16:42.984Z,86.70
2018-08-17T16:19:11.084Z,87.20
2018-08-17T16:21:39.244Z,87.00
2018-08-17T16:24:07.531Z,87.30
2018-08-17T16:26:35.811Z,87.70
2018-08-17T16:29:04.397Z,87.70
2018-08-17T16:31:40.578Z,88.00
2018-08-17T16:34:09.575Z,88.10
2018-08-17T16:36:39.729Z,88.40
2018-08-17T16:39:15.766Z,88.50
2018-08-17T16:41:43.868Z,88.90
2018-08-17T16:44:13.428Z,89.10
2018-08-17T16:46:42.561Z,89.40
2018-08-17T16:49:10.670Z,89.30
2018-08-17T16:51:39.083Z,89.60
2018-08-17T16:54:07.204Z,89.70
2018-08-17T16:56:35.644Z,90.20
2018-08-17T16:59:03.958Z,90.20
2018-08-17T17:01:32.064Z,90.60
2018-08-17T17:04:00.244Z,90.40
2018-08-17T17:06:28.435Z,90.60
2018-08-17T17:09:00.916Z,90.60
2018-08-17T17:11:29.023Z,90.80
2018-08-17T17:13:57.146Z,91.00
2018-08-17T17:16:34.503Z,91.10
2018-08-17T17:19:02.708Z,91.30
2018-08-17T17:21:31.141Z,91.30
2018-08-17T17:23:59.562Z,91.40
2018-08-17T17:26:27.808Z,91.40
2018-08-17T17:28:56.241Z,91.50
2018-08-17T17:31:24.359Z,91.70
2018-08-17T17:33:52.533Z,91.70
2018-08-17T17:36:20.649Z,91.80
2018-08-17T17:38:49.109Z,91.80
2018-08-17T17:41:17.341Z,91.90
2018-08-17T17:43:45.748Z,92.00
2018-08-17T17:46:14.065Z,92.20
2018-08-17T17:48:42.164Z,92.20
2018-08-17T17:51:10.311Z,92.30
2018-08-17T17:53:38.650Z,92.40
2018-08-17T17:56:06.844Z,92.50
2018-08-17T17:58:35.043Z,92.50
2018-08-17T18:01:09.087Z,92.50
2018-08-17T18:03:37.207Z,92.60
2018-08-17T18:06:06.724Z,92.50
2018-08-17T18:08:34.882Z,92.60
2018-08-17T18:11:03.112Z,92.80
2018-08-17T18:13:31.300Z,92.80
2018-08-17T18:15:59.485Z,92.80
2018-08-17T18:18:27.605Z,93.00
2018-08-17T18:20:55.819Z,93.10
2018-08-17T18:23:23.968Z,92.80
2018-08-17T18:25:58.493Z,93.20
2018-08-17T18:28:26.708Z,92.90
2018-08-17T18:30:54.942Z,93.10
2018-08-17T18:33:23.021Z,93.00
2018-08-17T18:35:51.224Z,93.00
2018-08-17T18:38:19.350Z,93.10
2018-08-17T18:40:47.556Z,93.10
2018-08-17T18:43:15.727Z,93.30
2018-08-17T18:45:43.953Z,93.30
2018-08-17T18:48:12.115Z,93.30
2018-08-17T18:50:40.303Z,93.20
2018-08-17T18:53:08.537Z,93.70
2018-08-17T18:55:37.750Z,93.30
2018-08-17T18:58:05.880Z,93.40
2018-08-17T19:00:34.029Z,93.40
2018-08-17T19:03:02.130Z,93.40
2018-08-17T19:05:30.335Z,93.40
2018-08-17T19:07:58.451Z,93.40
2018-08-17T19:10:26.751Z,93.50
2018-08-17T19:12:54.908Z,93.60
2018-08-17T19:15:23.123Z,93.60
2018-08-17T19:17:51.324Z,93.80
2018-08-17T19:20:19.436Z,94.00
2018-08-17T19:22:47.768Z,94.60
2018-08-17T19:25:16.703Z,94.70
2018-08-17T19:27:45.073Z,95.10
2018-08-17T19:30:21.686Z,95.40
2018-08-17T19:32:50.193Z,95.70
2018-08-17T19:35:18.597Z,95.90
2018-08-17T19:37:46.836Z,95.90
2018-08-17T19:40:14.925Z,96.00
2018-08-17T19:42:43.111Z,95.90
2018-08-17T19:45:11.267Z,95.90
2018-08-17T19:47:39.403Z,96.10
2018-08-17T19:50:07.643Z,96.10
2018-08-17T19:52:35.802Z,96.30
2018-08-17T19:55:04.253Z,96.40
2018-08-17T19:57:32.349Z,96.40
2018-08-17T20:00:00.519Z,96.40
2018-08-17T20:02:28.742Z,96.40
2018-08-17T20:04:56.928Z,96.40
2018-08-17T20:07:25.272Z,96.50
2018-08-17T20:09:53.483Z,96.70
2018-08-17T20:12:21.678Z,97.00
2018-08-17T20:14:49.963Z,97.40
2018-08-17T20:17:18.183Z,97.90
2018-08-17T20:19:47.203Z,98.00
2018-08-17T20:22:17.627Z,98.10
2018-08-17T20:24:46.006Z,98.20
2018-08-17T20:27:14.177Z,98.20
2018-08-17T20:29:42.322Z,98.20
2018-08-17T20:32:10.477Z,98.30
2018-08-17T20:34:41.606Z,98.30
2018-08-17T20:37:10.257Z,98.30
2018-08-17T20:39:38.543Z,98.10
2018-08-17T20:42:06.983Z,98.00
2018-08-17T20:44:35.140Z,97.80
2018-08-17T20:47:03.382Z,97.90
2018-08-17T20:49:31.532Z,97.80
2018-08-17T20:52:00.844Z,98.00
2018-08-17T20:54:29.744Z,98.00
2018-08-17T20:56:58.147Z,98.00
2018-08-17T20:59:26.263Z,98.00
2018-08-17T21:01:54.392Z,98.00
2018-08-17T21:04:22.621Z,98.10
2018-08-17T21:06:50.753Z,98.10
2018-08-17T21:09:19.219Z,98.00
2018-08-17T21:11:47.331Z,97.90
2018-08-17T21:14:15.450Z,97.90
2018-08-17T21:16:43.587Z,97.90
2018-08-17T21:19:11.698Z,97.80
2018-08-17T21:21:39.846Z,97.90
2018-08-17T21:24:08.025Z,97.80
2018-08-17T21:26:36.188Z,97.90
2018-08-17T21:29:05.032Z,97.90
2018-08-17T21:31:33.227Z,97.90
2018-08-17T21:34:01.470Z,98.00
2018-08-17T21:36:32.681Z,98.10
2018-08-17T21:39:15.230Z,98.10
2018-08-17T21:41:45.468Z,98.10
2018-08-17T21:44:14.639Z,98.20
2018-08-17T21:46:49.251Z,98.20
2018-08-17T21:49:17.540Z,98.20
2018-08-17T21:51:45.632Z,98.10
2018-08-17T21:54:13.748Z,98.30
2018-08-17T21:56:41.942Z,98.20
2018-08-17T21:59:10.035Z,98.50
2018-08-17T22:01:38.149Z,98.50
2018-08-17T22:04:06.279Z,98.50
2018-08-17T22:06:34.428Z,98.60
2018-08-17T22:09:02.986Z,98.70
2018-08-17T22:11:34.734Z,98.80
2018-08-17T22:14:03.114Z,98.90
2018-08-17T22:16:31.220Z,98.80
2018-08-17T22:18:59.515Z,98.90
2018-08-17T22:21:27.563Z,98.90
2018-08-17T22:23:56.018Z,98.80
2018-08-17T22:26:24.764Z,98.70
2018-08-17T22:28:54.288Z,98.60
2018-08-17T22:31:33.105Z,98.70
2018-08-17T22:34:01.323Z,98.90
2018-08-17T22:36:31.161Z,98.90
2018-08-17T22:38:59.352Z,98.90
2018-08-17T22:41:27.780Z,98.90
2018-08-17T22:43:56.166Z,99.30
2018-08-17T22:46:24.367Z,99.10
2018-08-17T22:48:52.676Z,99.10
2018-08-17T22:51:20.853Z,98.90
2018-08-17T22:53:49.146Z,99.00
2018-08-17T22:56:17.522Z,98.70
2018-08-17T22:58:49.294Z,98.90
2018-08-17T23:01:18.848Z,98.90
2018-08-17T23:04:01.535Z,98.80
2018-08-17T23:06:29.869Z,98.60
2018-08-17T23:08:57.933Z,98.70
2018-08-17T23:11:36.859Z,98.60
2018-08-17T23:14:20.926Z,98.60
2018-08-17T23:16:49.034Z,98.60
2018-08-17T23:19:17.183Z,98.70
2018-08-17T23:21:45.324Z,98.80
2018-08-17T23:24:13.481Z,98.60
2018-08-17T23:26:41.679Z,98.80
2018-08-17T23:29:09.841Z,98.80
2018-08-17T23:31:38.017Z,99.00
2018-08-17T23:34:06.180Z,99.00
2018-08-17T23:36:34.453Z,99.00
2018-08-17T23:39:02.608Z,99.00
2018-08-17T23:41:30.739Z,99.20
2018-08-17T23:43:58.868Z,99.40
2018-08-17T23:46:27.096Z,99.50
2018-08-17T23:48:55.246Z,99.30
2018-08-17T23:51:23.451Z,99.50
2018-08-17T23:53:51.564Z,99.50
2018-08-17T23:56:19.845Z,99.20
2018-08-17T23:58:47.972Z,99.40
